createdAt,value
2022-11-29T00:01:36.964Z,8.80
2022-11-29T00:04:06.203Z,9.20
2022-11-29T00:06:35.699Z,9.63
2022-11-29T00:09:06.983Z,9.23
2022-11-29T00:11:54.078Z,9.40
2022-11-29T00:14:23.182Z,9.40
2022-11-29T00:16:52.729Z,9.40
2022-11-29T00:19:22.647Z,10.30
2022-11-29T00:21:50.614Z,9.83
2022-11-29T00:24:18.883Z,9.70
2022-11-29T00:26:46.728Z,9.17
2022-11-29T00:29:14.729Z,9.97
2022-11-29T00:31:43.142Z,9.40
2022-11-29T00:34:12.811Z,10.43
2022-11-29T00:36:42.505Z,9.93
2022-11-29T00:39:12.028Z,11.03
2022-11-29T00:41:40.485Z,10.33
2022-11-29T00:44:08.692Z,10.33
2022-11-29T00:46:36.525Z,11.47
2022-11-29T00:49:04.761Z,10.80
2022-11-29T00:51:33.157Z,11.27
2022-11-29T00:54:02.378Z,11.17
2022-11-29T00:56:31.102Z,11.30
2022-11-29T00:58:59.049Z,11.00
2022-11-29T01:01:26.917Z,11.27
2022-11-29T01:03:54.812Z,10.20
2022-11-29T01:06:22.690Z,10.97
2022-11-29T01:08:50.662Z,9.73
2022-11-29T01:11:22.164Z,9.73
2022-11-29T01:13:50.648Z,10.40
2022-11-29T01:16:18.685Z,10.30
2022-11-29T01:18:46.770Z,11.10
2022-11-29T01:21:18.333Z,10.83
2022-11-29T01:23:46.726Z,10.47
2022-11-29T01:26:16.592Z,10.87
2022-11-29T01:28:46.966Z,9.73
2022-11-29T01:31:18.089Z,10.97
2022-11-29T01:33:46.082Z,10.63
2022-11-29T01:36:14.790Z,10.27
2022-11-29T01:38:43.514Z,11.00
2022-11-29T01:41:13.820Z,10.90
2022-11-29T01:44:01.382Z,11.37
2022-11-29T01:46:30.863Z,11.40
2022-11-29T01:49:03.158Z,11.87
2022-11-29T01:51:32.245Z,10.57
2022-11-29T01:54:00.426Z,11.73
2022-11-29T01:56:29.996Z,10.77
2022-11-29T01:58:59.190Z,10.97
2022-11-29T02:01:27.126Z,11.73
2022-11-29T02:03:55.202Z,10.63
2022-11-29T02:06:23.636Z,11.33
2022-11-29T02:08:51.417Z,11.83
2022-11-29T02:11:43.210Z,12.43
2022-11-29T02:14:26.025Z,11.87
2022-11-29T02:17:02.838Z,11.60
2022-11-29T02:19:54.485Z,12.20
2022-11-29T02:22:30.019Z,12.10
2022-11-29T02:25:30.441Z,11.87
2022-11-29T02:28:35.767Z,12.03
2022-11-29T02:31:42.223Z,11.13
2022-11-29T02:34:38.818Z,12.73
2022-11-29T02:37:23.589Z,12.17
2022-11-29T02:40:07.987Z,12.30
2022-11-29T02:43:02.732Z,12.67
2022-11-29T02:45:46.918Z,12.30
2022-11-29T02:48:30.729Z,14.00
2022-11-29T02:51:07.091Z,13.13
2022-11-29T02:53:42.047Z,12.93
2022-11-29T02:56:18.061Z,12.97
2022-11-29T02:58:51.281Z,12.17
2022-11-29T03:01:25.454Z,13.53
2022-11-29T03:04:03.709Z,13.87
2022-11-29T03:06:40.439Z,13.50
2022-11-29T03:09:15.030Z,13.30
2022-11-29T03:11:49.681Z,14.37
2022-11-29T03:14:24.795Z,13.57
2022-11-29T03:17:04.046Z,14.37
2022-11-29T03:19:55.562Z,15.17
2022-11-29T03:22:39.924Z,15.40
2022-11-29T03:25:13.917Z,13.60
2022-11-29T03:27:46.758Z,15.33
2022-11-29T03:30:19.629Z,15.33
2022-11-29T03:32:57.315Z,18.20
2022-11-29T03:35:30.952Z,16.50
2022-11-29T03:38:06.832Z,16.67
2022-11-29T03:40:43.191Z,16.93
2022-11-29T03:43:16.997Z,17.27
2022-11-29T03:45:49.740Z,16.00
2022-11-29T03:48:23.081Z,17.50
2022-11-29T03:50:54.990Z,17.60
2022-11-29T03:53:32.870Z,16.50
2022-11-29T03:56:02.221Z,17.60
2022-11-29T03:58:49.607Z,18.20
2022-11-29T04:01:52.066Z,18.47
2022-11-29T04:05:04.825Z,18.30
2022-11-29T04:07:45.596Z,20.33
2022-11-29T04:10:22.449Z,21.23
2022-11-29T04:13:07.909Z,23.17
2022-11-29T04:16:11.047Z,22.53
2022-11-29T04:19:14.205Z,21.67
2022-11-29T04:22:06.902Z,20.53
2022-11-29T04:25:14.901Z,22.80
2022-11-29T04:28:08.497Z,20.00
2022-11-29T04:30:47.219Z,21.57
2022-11-29T04:33:48.306Z,23.73
2022-11-29T04:36:39.167Z,24.27
2022-11-29T04:39:50.320Z,26.07
2022-11-29T04:42:42.671Z,26.90
2022-11-29T04:45:46.771Z,26.70
2022-11-29T04:48:31.899Z,27.33
2022-11-29T04:51:07.349Z,26.83
2022-11-29T04:53:48.880Z,26.87
2022-11-29T04:56:26.574Z,26.37
2022-11-29T04:59:03.319Z,27.37
2022-11-29T05:01:42.387Z,29.27
2022-11-29T05:04:17.674Z,29.80
2022-11-29T05:06:56.118Z,29.67
2022-11-29T05:09:33.934Z,30.40
2022-11-29T05:12:09.962Z,30.00
2022-11-29T05:14:51.533Z,30.27
2022-11-29T05:17:43.475Z,30.53
2022-11-29T05:20:27.473Z,33.10
2022-11-29T05:23:10.955Z,33.33
2022-11-29T05:25:50.029Z,33.47
2022-11-29T05:28:25.797Z,32.40
2022-11-29T05:31:17.164Z,34.67
2022-11-29T05:34:02.843Z,33.50
2022-11-29T05:36:40.962Z,33.93
2022-11-29T05:39:30.654Z,34.57
2022-11-29T05:42:13.689Z,36.57
2022-11-29T05:44:48.542Z,36.97
2022-11-29T05:47:28.243Z,35.27
2022-11-29T05:50:08.454Z,36.63
2022-11-29T05:52:46.082Z,36.37
2022-11-29T05:55:25.898Z,36.87
2022-11-29T05:57:58.536Z,36.83
2022-11-29T06:00:31.459Z,34.90
2022-11-29T06:03:04.373Z,36.97
2022-11-29T06:05:40.355Z,34.87
2022-11-29T06:08:14.365Z,36.70
2022-11-29T06:10:53.531Z,35.67
2022-11-29T06:13:37.380Z,38.43
2022-11-29T06:16:32.269Z,35.70
2022-11-29T06:19:40.533Z,37.27
2022-11-29T06:22:24.989Z,34.77
2022-11-29T06:25:14.310Z,35.97
2022-11-29T06:27:57.742Z,36.57
2022-11-29T06:30:30.654Z,35.30
2022-11-29T06:33:08.257Z,38.03
2022-11-29T06:35:45.788Z,37.10
2022-11-29T06:38:21.856Z,35.17
2022-11-29T06:40:50.113Z,35.00
2022-11-29T06:43:18.666Z,34.70
2022-11-29T06:45:53.645Z,37.93
2022-11-29T06:48:25.929Z,35.77
2022-11-29T06:51:02.061Z,37.37
2022-11-29T06:53:44.843Z,37.63
2022-11-29T06:56:22.515Z,36.87
2022-11-29T06:58:59.988Z,38.60
2022-11-29T07:01:37.248Z,36.73
2022-11-29T07:04:52.244Z,39.47
2022-11-29T07:07:25.807Z,35.67
2022-11-29T07:09:59.532Z,36.67
2022-11-29T07:12:28.211Z,35.73
2022-11-29T07:14:57.050Z,35.07
2022-11-29T07:17:31.743Z,34.67
2022-11-29T07:20:08.025Z,33.80
2022-11-29T07:22:48.705Z,34.77
2022-11-29T07:25:27.737Z,33.80
2022-11-29T07:28:06.264Z,31.57
2022-11-29T07:30:47.088Z,34.23
2022-11-29T07:33:24.636Z,34.23
2022-11-29T07:36:02.406Z,33.33
2022-11-29T07:38:51.649Z,32.80
2022-11-29T07:41:28.806Z,34.87
2022-11-29T07:44:07.983Z,32.40
2022-11-29T07:46:35.698Z,33.40
2022-11-29T07:49:03.546Z,32.87
2022-11-29T07:51:32.629Z,33.70
2022-11-29T07:54:01.153Z,31.60
2022-11-29T07:56:30.377Z,35.60
2022-11-29T07:58:58.170Z,34.23
2022-11-29T08:01:26.023Z,35.70
2022-11-29T08:03:53.773Z,32.47
2022-11-29T08:06:25.882Z,31.67
2022-11-29T08:08:53.754Z,32.17
2022-11-29T08:11:21.554Z,31.50
2022-11-29T08:13:50.634Z,30.53
2022-11-29T08:16:19.215Z,31.27
2022-11-29T08:18:47.101Z,29.97
2022-11-29T08:21:18.065Z,31.07
2022-11-29T08:23:45.921Z,31.60
2022-11-29T08:26:14.165Z,29.30
2022-11-29T08:28:42.156Z,29.43
2022-11-29T08:31:13.188Z,29.77
2022-11-29T08:33:42.718Z,31.17
2022-11-29T08:36:13.011Z,29.07
2022-11-29T08:38:41.037Z,28.80
2022-11-29T08:41:11.614Z,27.53
2022-11-29T08:43:39.332Z,27.37
2022-11-29T08:46:07.637Z,26.33
2022-11-29T08:48:36.962Z,27.43
2022-11-29T08:51:06.118Z,27.70
2022-11-29T08:53:42.014Z,28.17
2022-11-29T08:56:41.811Z,25.43
2022-11-29T08:58:59.006Z,29.27
2022-11-29T09:01:26.815Z,27.47
2022-11-29T09:04:03.529Z,27.97
2022-11-29T09:06:32.810Z,29.30
2022-11-29T09:09:01.597Z,27.10
2022-11-29T09:11:31.360Z,28.93
2022-11-29T09:14:01.311Z,27.23
2022-11-29T09:16:31.228Z,28.43
2022-11-29T09:19:02.963Z,27.40
2022-11-29T09:21:32.948Z,26.37
2022-11-29T09:24:02.300Z,26.10
2022-11-29T09:26:32.703Z,27.43
2022-11-29T09:29:01.201Z,26.37
2022-11-29T09:31:29.980Z,29.33
2022-11-29T09:33:58.127Z,27.00
2022-11-29T09:36:29.171Z,27.03
2022-11-29T09:38:57.420Z,27.80
2022-11-29T09:41:42.962Z,27.87
2022-11-29T09:44:22.191Z,26.90
2022-11-29T09:47:01.350Z,28.73
2022-11-29T09:49:44.949Z,27.67
2022-11-29T09:52:22.365Z,26.23
2022-11-29T09:54:58.286Z,25.77
2022-11-29T09:57:27.131Z,25.50
2022-11-29T10:00:00.640Z,23.93
2022-11-29T10:02:37.279Z,25.87
2022-11-29T10:05:14.407Z,27.93
2022-11-29T10:07:49.349Z,25.10
2022-11-29T10:10:21.337Z,27.30
2022-11-29T10:12:54.195Z,28.27
2022-11-29T10:15:25.345Z,29.30
2022-11-29T10:17:56.610Z,27.60
2022-11-29T10:20:27.308Z,33.33
2022-11-29T10:23:00.764Z,30.90
2022-11-29T10:25:34.373Z,29.20
2022-11-29T10:28:02.132Z,31.33
2022-11-29T10:30:30.875Z,29.93
2022-11-29T10:33:01.178Z,31.47
2022-11-29T10:35:29.499Z,29.23
2022-11-29T10:40:54.667Z,26.87
2022-11-29T10:43:22.496Z,27.17
2022-11-29T10:45:56.125Z,24.33
2022-11-29T10:48:28.022Z,23.30
2022-11-29T10:50:55.767Z,25.20
2022-11-29T10:53:27.345Z,21.27
2022-11-29T10:56:03.589Z,21.37
2022-11-29T10:58:32.488Z,20.83
2022-11-29T11:01:02.091Z,22.40
2022-11-29T11:03:35.373Z,22.73
2022-11-29T11:06:10.483Z,21.23
2022-11-29T11:08:42.551Z,23.27
2022-11-29T11:11:11.474Z,27.47
2022-11-29T11:13:40.961Z,26.30
2022-11-29T11:16:17.161Z,26.53
2022-11-29T11:18:46.081Z,26.53
2022-11-29T11:21:16.380Z,25.57
2022-11-29T11:23:53.891Z,26.57
2022-11-29T11:26:21.787Z,24.67
2022-11-29T11:28:53.631Z,25.13
2022-11-29T11:31:30.973Z,23.33
2022-11-29T11:34:26.453Z,26.07
2022-11-29T11:36:54.937Z,26.23
2022-11-29T11:39:25.510Z,26.23
2022-11-29T11:42:11.162Z,26.90
2022-11-29T11:44:49.214Z,26.97
2022-11-29T11:47:19.807Z,26.53
2022-11-29T11:49:50.330Z,26.23
2022-11-29T11:52:22.202Z,25.97
2022-11-29T11:54:55.401Z,25.23
2022-11-29T11:57:25.358Z,26.57
2022-11-29T11:59:55.744Z,25.60
2022-11-29T12:02:37.470Z,26.63
2022-11-29T12:05:11.960Z,26.80
2022-11-29T12:08:07.467Z,26.53
2022-11-29T12:10:35.931Z,25.70
2022-11-29T12:13:03.957Z,24.50
2022-11-29T12:15:38.153Z,26.83
2022-11-29T12:18:12.544Z,25.80
2022-11-29T12:20:45.165Z,25.67
2022-11-29T12:23:27.513Z,26.50
2022-11-29T12:26:01.092Z,25.90
2022-11-29T12:28:32.744Z,26.97
2022-11-29T12:31:13.111Z,26.93
2022-11-29T12:33:48.370Z,25.80
2022-11-29T12:36:26.073Z,28.80
2022-11-29T12:39:04.729Z,29.10
2022-11-29T12:41:47.249Z,26.80
2022-11-29T12:44:31.439Z,25.30
2022-11-29T12:50:08.893Z,25.00
2022-11-29T12:52:48.060Z,23.83
2022-11-29T12:55:24.446Z,23.47
2022-11-29T12:58:03.230Z,24.23
2022-11-29T13:00:40.291Z,23.83
2022-11-29T13:03:17.924Z,21.93
2022-11-29T13:06:03.708Z,24.30
2022-11-29T13:08:57.160Z,23.10
2022-11-29T13:11:28.469Z,22.77
2022-11-29T13:14:34.762Z,21.00
2022-11-29T13:16:57.814Z,21.53
2022-11-29T13:19:34.057Z,21.60
2022-11-29T13:22:11.837Z,20.73
2022-11-29T13:24:45.171Z,22.90
2022-11-29T13:27:19.185Z,22.27
2022-11-29T13:29:50.141Z,24.63
2022-11-29T13:32:35.491Z,24.27
2022-11-29T13:35:09.109Z,22.13
2022-11-29T13:37:44.166Z,23.67
2022-11-29T13:40:24.427Z,21.57
2022-11-29T13:43:00.228Z,21.23
2022-11-29T13:45:37.401Z,21.27
2022-11-29T13:48:37.675Z,21.80
2022-11-29T13:51:27.902Z,19.53
2022-11-29T13:53:56.965Z,19.43
2022-11-29T13:56:32.658Z,21.50
2022-11-29T13:59:02.072Z,21.73
2022-11-29T14:01:43.342Z,22.03
2022-11-29T14:04:24.036Z,21.53
2022-11-29T14:07:03.560Z,23.07
2022-11-29T14:09:36.921Z,26.17
2022-11-29T14:12:19.656Z,27.00
2022-11-29T14:14:52.942Z,27.37
2022-11-29T14:17:46.251Z,27.00
2022-11-29T14:20:45.273Z,27.50
2022-11-29T14:23:18.835Z,27.03
2022-11-29T14:26:29.202Z,27.20
2022-11-29T14:28:58.218Z,28.40
2022-11-29T14:31:51.278Z,28.53
2022-11-29T14:34:45.840Z,26.87
2022-11-29T14:37:30.493Z,26.70
2022-11-29T14:40:02.380Z,27.73
2022-11-29T14:42:30.848Z,28.93
2022-11-29T14:45:01.478Z,29.03
2022-11-29T14:47:32.475Z,27.53
2022-11-29T14:50:06.508Z,28.47
2022-11-29T14:52:38.641Z,27.20
2022-11-29T14:55:09.666Z,27.57
2022-11-29T14:58:06.057Z,26.90
2022-11-29T15:00:44.434Z,27.07
2022-11-29T15:03:17.973Z,26.47
2022-11-29T15:05:51.087Z,26.13
2022-11-29T15:08:30.106Z,26.73
2022-11-29T15:11:02.858Z,25.90
2022-11-29T15:13:32.832Z,27.87
2022-11-29T15:16:19.887Z,27.03
2022-11-29T15:19:17.379Z,26.03
2022-11-29T15:21:56.932Z,27.70
2022-11-29T15:24:28.308Z,26.53
2022-11-29T15:26:57.556Z,26.27
2022-11-29T15:29:26.103Z,26.20
2022-11-29T15:31:56.100Z,25.60
2022-11-29T15:34:31.492Z,27.40
2022-11-29T15:37:01.609Z,26.53
2022-11-29T15:39:31.694Z,27.87
2022-11-29T15:42:11.227Z,26.57
2022-11-29T15:44:45.673Z,26.93
2022-11-29T15:47:21.748Z,25.67
2022-11-29T15:49:50.009Z,24.83
2022-11-29T15:52:25.043Z,26.40
2022-11-29T15:54:57.763Z,26.30
2022-11-29T15:57:28.921Z,25.53
2022-11-29T15:59:59.310Z,25.63
2022-11-29T16:02:29.240Z,26.77
2022-11-29T16:05:00.879Z,24.73
2022-11-29T16:07:34.291Z,24.73
2022-11-29T16:10:12.551Z,24.30
2022-11-29T16:12:53.021Z,25.60
2022-11-29T16:15:30.282Z,25.00
2022-11-29T16:18:04.134Z,24.50
2022-11-29T16:20:32.294Z,26.77
2022-11-29T16:23:12.651Z,24.60
2022-11-29T16:25:54.872Z,24.50
2022-11-29T16:28:23.088Z,25.90
2022-11-29T16:30:53.064Z,24.20
2022-11-29T16:33:24.605Z,24.47
2022-11-29T16:35:52.873Z,23.07
2022-11-29T16:38:24.019Z,24.70
2022-11-29T16:41:07.195Z,23.80
2022-11-29T16:43:53.617Z,23.40
2022-11-29T16:46:38.932Z,22.53
2022-11-29T16:49:33.434Z,23.93
2022-11-29T16:52:01.707Z,23.10
2022-11-29T16:54:34.152Z,23.67
2022-11-29T16:57:06.116Z,23.77
2022-11-29T16:59:35.266Z,23.17
2022-11-29T17:02:03.169Z,22.20
2022-11-29T17:04:31.027Z,22.20
2022-11-29T17:06:58.794Z,22.40
2022-11-29T17:09:29.086Z,22.30
2022-11-29T17:12:00.939Z,21.27
2022-11-29T17:14:29.214Z,19.97
2022-11-29T17:16:57.016Z,19.70
2022-11-29T17:19:25.397Z,18.97
2022-11-29T17:21:53.369Z,20.00
2022-11-29T17:24:22.777Z,20.07
2022-11-29T17:26:51.342Z,17.97
2022-11-29T17:29:20.617Z,17.17
2022-11-29T17:31:50.400Z,16.67
2022-11-29T17:34:18.737Z,17.37
2022-11-29T17:36:46.626Z,17.40
2022-11-29T17:39:15.654Z,16.80
2022-11-29T17:41:43.535Z,16.80
2022-11-29T17:44:11.355Z,16.47
2022-11-29T17:46:40.669Z,15.93
2022-11-29T17:49:09.649Z,15.83
2022-11-29T17:51:55.492Z,16.87
2022-11-29T17:54:23.749Z,16.60
2022-11-29T17:56:52.062Z,14.77
2022-11-29T17:59:20.371Z,14.53
2022-11-29T18:01:49.624Z,15.17
2022-11-29T18:04:17.549Z,14.93
2022-11-29T18:06:49.514Z,15.20
2022-11-29T18:09:18.390Z,16.80
2022-11-29T18:11:49.279Z,17.00
2022-11-29T18:14:20.896Z,17.07
2022-11-29T18:16:50.308Z,16.47
2022-11-29T18:19:22.137Z,16.87
2022-11-29T18:21:50.589Z,15.83
2022-11-29T18:24:19.077Z,16.20
2022-11-29T18:26:47.458Z,17.30
2022-11-29T18:29:15.741Z,17.00
2022-11-29T18:31:45.100Z,16.90
2022-11-29T18:34:15.762Z,17.03
2022-11-29T18:36:45.107Z,16.60
2022-11-29T18:39:14.996Z,16.60
2022-11-29T18:41:44.202Z,15.70
2022-11-29T18:44:14.255Z,16.20
2022-11-29T18:46:43.943Z,14.87
2022-11-29T18:49:15.256Z,15.87
2022-11-29T18:51:44.586Z,15.80
2022-11-29T18:54:13.429Z,15.20
2022-11-29T18:56:42.300Z,14.40
2022-11-29T18:59:12.027Z,15.27
2022-11-29T19:01:42.552Z,14.83
2022-11-29T19:04:12.514Z,13.73
2022-11-29T19:06:42.414Z,14.03
2022-11-29T19:09:15.303Z,14.53
2022-11-29T19:11:43.339Z,16.10
2022-11-29T19:14:13.196Z,17.70
2022-11-29T19:16:43.765Z,19.13
2022-11-29T19:19:11.986Z,20.70
2022-11-29T19:21:43.836Z,20.63
2022-11-29T19:24:17.873Z,19.13
2022-11-29T19:26:47.603Z,17.43
2022-11-29T19:29:16.386Z,18.70
2022-11-29T19:31:44.283Z,20.27
2022-11-29T19:34:12.416Z,19.50
2022-11-29T19:36:44.254Z,20.50
2022-11-29T19:39:13.836Z,20.03
2022-11-29T19:41:43.989Z,19.43
2022-11-29T19:44:12.764Z,19.87
2022-11-29T19:46:42.713Z,18.87
2022-11-29T19:49:11.149Z,21.00
2022-11-29T19:51:39.563Z,19.67
2022-11-29T19:54:10.555Z,18.37
2022-11-29T19:56:38.987Z,18.77
2022-11-29T19:59:07.479Z,19.77
2022-11-29T20:01:40.856Z,18.43
2022-11-29T20:04:11.053Z,18.60
2022-11-29T20:06:38.938Z,18.57
2022-11-29T20:09:08.256Z,19.07
2022-11-29T20:11:36.510Z,17.87
2022-11-29T20:14:06.230Z,19.07
2022-11-29T20:16:34.305Z,18.37
2022-11-29T20:19:02.141Z,19.47
2022-11-29T20:21:31.803Z,18.70
2022-11-29T20:24:01.346Z,19.33
2022-11-29T20:26:31.572Z,20.30
2022-11-29T20:29:00.154Z,21.23
2022-11-29T20:31:27.997Z,20.20
2022-11-29T20:33:57.429Z,22.40
2022-11-29T20:36:43.163Z,20.83
2022-11-29T20:39:24.732Z,21.30
2022-11-29T20:42:10.821Z,19.53
2022-11-29T20:44:41.224Z,21.17
2022-11-29T20:47:15.123Z,21.87
2022-11-29T20:49:43.284Z,21.97
2022-11-29T20:52:29.799Z,21.77
2022-11-29T20:54:57.553Z,21.80
2022-11-29T20:57:26.698Z,20.43
2022-11-29T20:59:54.617Z,21.97
2022-11-29T21:02:22.600Z,21.07
2022-11-29T21:04:50.374Z,20.73
2022-11-29T21:07:18.905Z,22.37
2022-11-29T21:09:47.103Z,22.00
2022-11-29T21:12:15.763Z,20.93
2022-11-29T21:14:45.910Z,21.37
2022-11-29T21:17:14.373Z,23.20
2022-11-29T21:19:42.643Z,21.53
2022-11-29T21:22:19.970Z,21.33
2022-11-29T21:24:55.859Z,22.17
2022-11-29T21:27:31.524Z,21.50
2022-11-29T21:30:03.267Z,21.07
2022-11-29T21:32:31.480Z,21.10
2022-11-29T21:34:59.815Z,20.83
2022-11-29T21:37:30.156Z,20.97
2022-11-29T21:39:58.848Z,21.67
2022-11-29T21:42:27.258Z,20.37
2022-11-29T21:44:55.106Z,23.27
2022-11-29T21:47:24.227Z,21.20
2022-11-29T21:49:52.787Z,21.47
2022-11-29T21:52:22.718Z,21.43
2022-11-29T21:54:51.511Z,21.50
2022-11-29T21:57:19.285Z,21.30
2022-11-29T21:59:47.109Z,22.47
2022-11-29T22:02:15.004Z,21.53
2022-11-29T22:04:44.499Z,22.87
2022-11-29T22:07:12.451Z,22.00
2022-11-29T22:09:40.224Z,22.80
2022-11-29T22:12:31.906Z,25.40
2022-11-29T22:14:55.822Z,27.20
2022-11-29T22:17:23.777Z,26.63
2022-11-29T22:19:52.965Z,27.33
2022-11-29T22:22:20.730Z,27.63
2022-11-29T22:24:48.666Z,26.03
2022-11-29T22:27:18.303Z,26.13
2022-11-29T22:29:46.170Z,25.73
2022-11-29T22:32:14.678Z,22.93
2022-11-29T22:34:42.401Z,25.80
2022-11-29T22:37:12.415Z,25.80
2022-11-29T22:39:40.190Z,26.03
2022-11-29T22:42:08.196Z,24.67
2022-11-29T22:44:35.936Z,25.90
2022-11-29T22:47:03.708Z,25.57
2022-11-29T22:49:33.159Z,24.53
2022-11-29T22:52:01.103Z,24.60
2022-11-29T22:54:30.192Z,23.90
2022-11-29T22:56:57.918Z,24.57
2022-11-29T22:59:25.635Z,25.60
2022-11-29T23:01:53.380Z,24.67
2022-11-29T23:04:21.196Z,25.60
2022-11-29T23:06:48.906Z,25.70
2022-11-29T23:09:21.098Z,25.53
2022-11-29T23:11:53.404Z,25.87
2022-11-29T23:14:22.309Z,26.47
2022-11-29T23:16:50.461Z,27.20
2022-11-29T23:19:18.504Z,26.20
2022-11-29T23:21:46.427Z,26.07
2022-11-29T23:24:15.003Z,25.40
2022-11-29T23:26:46.205Z,26.40
2022-11-29T23:29:16.759Z,27.80
2022-11-29T23:31:45.138Z,29.23
2022-11-29T23:34:13.412Z,26.60
2022-11-29T23:36:41.441Z,27.80
2022-11-29T23:39:09.166Z,27.67
2022-11-29T23:41:37.561Z,25.87
2022-11-29T23:44:05.866Z,26.33
2022-11-29T23:46:36.207Z,25.70
2022-11-29T23:49:04.122Z,27.10
2022-11-29T23:51:31.911Z,25.63
2022-11-29T23:53:59.665Z,27.43
2022-11-29T23:56:27.456Z,28.00
2022-11-29T23:58:55.216Z,28.97
